createdAt,value
2023-02-02T00:02:09.360Z,100140.78
2023-02-02T00:04:42.302Z,100157.00
2023-02-02T00:07:12.333Z,100147.06
2023-02-02T00:09:42.659Z,100132.16
2023-02-02T00:12:13.230Z,100126.84
2023-02-02T00:14:43.529Z,100142.47
2023-02-02T00:17:14.308Z,100130.28
2023-02-02T00:19:47.256Z,100126.59
2023-02-02T00:22:17.393Z,100133.00
2023-02-02T00:24:47.665Z,100123.41
2023-02-02T00:27:17.608Z,100122.09
2023-02-02T00:29:48.080Z,100132.28
2023-02-02T00:32:19.797Z,100135.41
2023-02-02T00:35:00.007Z,100110.63
2023-02-02T00:37:30.175Z,100120.47
2023-02-02T00:40:00.503Z,100119.16
2023-02-02T00:42:30.518Z,100115.72
2023-02-02T00:45:13.230Z,100117.50
2023-02-02T00:47:43.248Z,100142.41
2023-02-02T00:50:19.381Z,100109.22
2023-02-02T00:52:50.697Z,100115.25
2023-02-02T00:55:22.509Z,100095.47
2023-02-02T00:57:53.132Z,100096.28
2023-02-02T01:00:27.019Z,100102.91
2023-02-02T01:03:04.316Z,100146.56
2023-02-02T01:05:37.741Z,100125.09
2023-02-02T01:08:08.542Z,100104.69
2023-02-02T01:10:39.580Z,100124.16
2023-02-02T01:13:10.180Z,100140.38
2023-02-02T01:15:40.891Z,100123.22
2023-02-02T01:18:11.171Z,100133.03
2023-02-02T01:20:44.294Z,100131.25
2023-02-02T01:23:14.562Z,100139.06
2023-02-02T01:25:45.212Z,100127.22
2023-02-02T01:28:15.478Z,100145.69
2023-02-02T01:30:46.112Z,100144.66
2023-02-02T01:33:16.327Z,100161.47
2023-02-02T01:35:53.678Z,100149.38
2023-02-02T01:38:26.998Z,100149.97
2023-02-02T01:41:00.355Z,100134.47
2023-02-02T01:43:58.911Z,100151.84
2023-02-02T01:46:37.119Z,100135.50
2023-02-02T01:49:12.724Z,100149.25
2023-02-02T01:51:50.756Z,100129.34
2023-02-02T01:54:29.100Z,100158.16
2023-02-02T01:57:03.198Z,100145.31
2023-02-02T01:59:34.235Z,100155.66
2023-02-02T02:02:05.748Z,100166.31
2023-02-02T02:04:38.624Z,100175.19
2023-02-02T02:07:12.254Z,100165.94
2023-02-02T02:09:42.506Z,100168.91
2023-02-02T02:12:17.131Z,100169.63
2023-02-02T02:15:02.583Z,100161.91
2023-02-02T02:17:49.124Z,100164.19
2023-02-02T02:20:56.840Z,100165.94
2023-02-02T02:24:12.976Z,100161.09
2023-02-02T02:27:10.204Z,100169.16
2023-02-02T02:30:13.086Z,100172.38
2023-02-02T02:32:52.197Z,100167.88
2023-02-02T02:35:32.163Z,100168.59
2023-02-02T02:38:07.376Z,100177.47
2023-02-02T02:40:40.660Z,100177.47
2023-02-02T02:43:16.289Z,100189.56
2023-02-02T02:45:47.340Z,100189.44
2023-02-02T02:48:20.120Z,100157.22
2023-02-02T02:50:50.636Z,100194.56
2023-02-02T02:53:24.579Z,100191.94
2023-02-02T02:56:03.761Z,100197.03
2023-02-02T02:58:43.372Z,100209.34
2023-02-02T03:01:23.536Z,100205.09
2023-02-02T03:04:09.839Z,100192.78
2023-02-02T03:06:47.272Z,100205.81
2023-02-02T03:09:22.559Z,100204.03
2023-02-02T03:11:52.854Z,100204.84
2023-02-02T03:14:22.815Z,100201.19
2023-02-02T03:16:54.016Z,100208.56
2023-02-02T03:19:26.847Z,100205.81
2023-02-02T03:21:57.272Z,100208.41
2023-02-02T03:24:27.196Z,100225.84
2023-02-02T03:26:57.600Z,100227.53
2023-02-02T03:29:28.047Z,100225.75
2023-02-02T03:31:58.608Z,100251.59
2023-02-02T03:34:31.143Z,100259.44
2023-02-02T03:37:01.416Z,100249.81
2023-02-02T03:39:31.419Z,100256.22
2023-02-02T03:42:01.633Z,100261.31
2023-02-02T03:44:31.600Z,100271.53
2023-02-02T03:47:02.164Z,100289.88
2023-02-02T03:49:35.027Z,100290.00
2023-02-02T03:52:05.440Z,100299.59
2023-02-02T03:54:35.375Z,100295.94
2023-02-02T03:57:05.776Z,100294.88
2023-02-02T03:59:35.933Z,100304.34
2023-02-02T04:02:06.343Z,100313.97
2023-02-02T04:04:39.016Z,100313.97
2023-02-02T04:07:10.031Z,100292.50
2023-02-02T04:09:40.052Z,100336.00
2023-02-02T04:12:10.678Z,100325.69
2023-02-02T04:14:42.129Z,100323.16
2023-02-02T04:17:14.723Z,100336.81
2023-02-02T04:19:47.352Z,100348.34
2023-02-02T04:22:17.740Z,100354.47
2023-02-02T04:24:47.905Z,100346.78
2023-02-02T04:27:18.168Z,100355.22
2023-02-02T04:29:48.080Z,100360.31
2023-02-02T04:32:19.766Z,100372.63
2023-02-02T04:34:52.222Z,100370.03
2023-02-02T04:37:22.497Z,100370.03
2023-02-02T04:39:53.867Z,100375.00
2023-02-02T04:42:24.219Z,100371.91
2023-02-02T04:44:54.398Z,100384.00
2023-02-02T04:47:24.843Z,100362.19
2023-02-02T04:49:57.637Z,100389.13
2023-02-02T04:52:27.988Z,100370.88
2023-02-02T04:54:57.968Z,100391.72
2023-02-02T04:57:29.121Z,100410.72
2023-02-02T04:59:59.020Z,100399.19
2023-02-02T05:02:29.298Z,100392.22
2023-02-02T05:05:02.248Z,100417.59
2023-02-02T05:07:33.356Z,100412.38
2023-02-02T05:10:03.568Z,100429.19
2023-02-02T05:12:33.830Z,100436.41
2023-02-02T05:15:05.410Z,100434.41
2023-02-02T05:17:35.992Z,100444.84
2023-02-02T05:20:09.320Z,100438.06
2023-02-02T05:22:39.584Z,100450.06
2023-02-02T05:25:11.155Z,100457.88
2023-02-02T05:27:41.461Z,100458.94
2023-02-02T05:30:14.520Z,100477.41
2023-02-02T05:32:44.786Z,100475.13
2023-02-02T05:35:17.588Z,100488.06
2023-02-02T05:37:47.888Z,100493.59
2023-02-02T05:40:18.017Z,100484.09
2023-02-02T05:42:50.968Z,100478.88
2023-02-02T05:45:20.881Z,100487.34
2023-02-02T05:47:51.464Z,100495.16
2023-02-02T05:50:24.423Z,100495.25
2023-02-02T05:52:54.992Z,100505.47
2023-02-02T05:55:25.563Z,100506.19
2023-02-02T05:57:56.335Z,100512.25
2023-02-02T06:00:26.692Z,100506.81
2023-02-02T06:02:57.363Z,100509.53
2023-02-02T06:05:30.278Z,100510.97
2023-02-02T06:08:00.898Z,100523.91
2023-02-02T06:10:31.491Z,100525.16
2023-02-02T06:13:02.198Z,100531.94
2023-02-02T06:15:33.019Z,100523.41
2023-02-02T06:18:06.189Z,100539.78
2023-02-02T06:20:39.338Z,100536.44
2023-02-02T06:23:09.877Z,100546.66
2023-02-02T06:25:40.078Z,100551.78
2023-02-02T06:28:11.325Z,100558.84
2023-02-02T06:30:43.915Z,100564.91
2023-02-02T06:33:14.855Z,100551.78
2023-02-02T06:35:47.620Z,100566.59
2023-02-02T06:38:19.108Z,100563.13
2023-02-02T06:40:49.362Z,100570.84
2023-02-02T06:43:20.096Z,100566.81
2023-02-02T06:45:50.292Z,100565.97
2023-02-02T06:48:20.889Z,100574.72
2023-02-02T06:50:53.893Z,100586.00
2023-02-02T06:53:25.883Z,100578.63
2023-02-02T06:55:57.098Z,100588.91
2023-02-02T06:58:27.689Z,100588.19
2023-02-02T07:00:58.202Z,100602.91
2023-02-02T07:03:28.741Z,100602.69
2023-02-02T07:06:01.579Z,100605.06
2023-02-02T07:08:32.168Z,100602.47
2023-02-02T07:11:11.285Z,100621.44
2023-02-02T07:13:47.262Z,100617.41
2023-02-02T07:16:18.742Z,100633.88
2023-02-02T07:18:50.282Z,100626.06
2023-02-02T07:21:24.756Z,100644.41
2023-02-02T07:23:55.348Z,100652.56
2023-02-02T07:26:26.076Z,100649.19
2023-02-02T07:28:56.730Z,100651.81
2023-02-02T07:31:29.396Z,100660.50
2023-02-02T07:34:00.043Z,100670.06
2023-02-02T07:36:32.928Z,100674.69
2023-02-02T07:39:05.070Z,100681.66
2023-02-02T07:41:37.350Z,100675.28
2023-02-02T07:44:08.509Z,100680.09
2023-02-02T07:46:38.791Z,100675.63
2023-02-02T07:49:09.800Z,100686.16
2023-02-02T07:51:47.215Z,100681.34
2023-02-02T07:54:18.962Z,100691.69
2023-02-02T07:56:49.245Z,100698.47
2023-02-02T07:59:19.848Z,100702.31
2023-02-02T08:01:50.048Z,100707.53
2023-02-02T08:04:20.676Z,100712.53
2023-02-02T08:06:53.604Z,100714.00
2023-02-02T08:09:24.254Z,100723.28
2023-02-02T08:11:54.586Z,100727.44
2023-02-02T08:14:25.092Z,100734.16
2023-02-02T08:16:55.144Z,100732.28
2023-02-02T08:19:25.772Z,100741.13
2023-02-02T08:21:58.387Z,100750.72
2023-02-02T08:24:28.790Z,100750.72
2023-02-02T08:26:58.908Z,100759.59
2023-02-02T08:29:29.289Z,100743.09
2023-02-02T08:32:00.261Z,100746.31
2023-02-02T08:34:30.736Z,100752.91
2023-02-02T08:37:03.376Z,100752.91
2023-02-02T08:39:33.807Z,100755.91
2023-02-02T08:42:03.794Z,100768.56
2023-02-02T08:46:00.059Z,100756.34
2023-02-02T08:47:23.993Z,100760.38
2023-02-02T08:49:54.544Z,100764.66
2023-02-02T08:52:27.237Z,100758.81
2023-02-02T08:54:57.553Z,100750.66
2023-02-02T08:57:27.613Z,100767.78
2023-02-02T08:59:57.971Z,100758.53
2023-02-02T09:02:27.982Z,100772.59
2023-02-02T09:04:58.303Z,100766.81
2023-02-02T09:07:30.846Z,100779.16
2023-02-02T09:10:01.267Z,100776.66
2023-02-02T09:12:31.437Z,100773.44
2023-02-02T09:15:01.790Z,100773.63
2023-02-02T09:17:31.861Z,100784.75
2023-02-02T09:20:02.129Z,100794.75
2023-02-02T09:22:35.414Z,100798.41
2023-02-02T09:25:05.731Z,100803.19
2023-02-02T09:27:41.084Z,100807.03
2023-02-02T09:30:12.828Z,100787.56
2023-02-02T09:32:42.767Z,100801.19
2023-02-02T09:35:13.444Z,100813.50
2023-02-02T09:40:37.675Z,100818.19
2023-02-02T09:43:20.457Z,100831.06
2023-02-02T09:45:57.857Z,100831.78
2023-02-02T09:48:38.602Z,100836.19
2023-02-02T09:51:16.006Z,100837.81
2023-02-02T09:53:55.996Z,100838.03
2023-02-02T09:56:32.233Z,100851.38
2023-02-02T09:59:18.903Z,100846.31
2023-02-02T10:01:55.474Z,100842.22
2023-02-02T10:04:34.766Z,100838.59
2023-02-02T10:07:15.412Z,100852.06
2023-02-02T10:09:53.797Z,100834.44
2023-02-02T10:12:35.938Z,100850.47
2023-02-02T10:15:20.405Z,100851.00
2023-02-02T10:17:56.856Z,100846.81
2023-02-02T10:20:36.433Z,100848.47
2023-02-02T10:23:14.866Z,100845.63
2023-02-02T10:26:09.839Z,100854.28
2023-02-02T10:28:46.355Z,100851.81
2023-02-02T10:31:24.835Z,100860.47
2023-02-02T10:34:05.309Z,100861.66
2023-02-02T10:36:48.286Z,100851.97
2023-02-02T10:39:25.637Z,100852.44
2023-02-02T10:42:06.099Z,100871.00
2023-02-02T10:44:42.516Z,100858.50
2023-02-02T10:47:18.096Z,100870.22
2023-02-02T10:49:53.761Z,100876.94
2023-02-02T10:52:32.356Z,100877.84
2023-02-02T10:55:07.407Z,100881.38
2023-02-02T10:57:51.871Z,100884.81
2023-02-02T11:00:27.097Z,100885.78
2023-02-02T11:02:58.967Z,100888.53
2023-02-02T11:05:44.684Z,100896.25
2023-02-02T11:08:20.968Z,100889.81
2023-02-02T11:10:55.543Z,100903.06
2023-02-02T11:13:33.587Z,100904.69
2023-02-02T11:16:41.325Z,100908.31
2023-02-02T11:19:26.747Z,100907.13
2023-02-02T11:21:59.340Z,100917.88
2023-02-02T11:24:36.538Z,100930.09
2023-02-02T11:27:15.328Z,100929.97
2023-02-02T11:29:50.864Z,100932.44
2023-02-02T11:32:30.821Z,100928.06
2023-02-02T11:35:18.526Z,100941.66
2023-02-02T11:38:01.842Z,100935.47
2023-02-02T11:40:38.124Z,100940.09
2023-02-02T11:43:19.997Z,100942.41
2023-02-02T11:46:02.317Z,100937.50
2023-02-02T11:48:36.634Z,100954.44
2023-02-02T11:51:08.847Z,100948.81
2023-02-02T11:53:45.583Z,100954.31
2023-02-02T11:56:25.105Z,100942.50
2023-02-02T11:58:59.138Z,100950.13
2023-02-02T12:01:34.121Z,100961.31
2023-02-02T12:04:05.827Z,100959.28
2023-02-02T12:06:38.855Z,100958.03
2023-02-02T12:09:17.903Z,100957.78
2023-02-02T12:12:03.947Z,100950.78
2023-02-02T12:14:46.351Z,100956.09
2023-02-02T12:17:35.153Z,100965.53
2023-02-02T12:20:19.670Z,100965.69
2023-02-02T12:23:05.824Z,100970.53
2023-02-02T12:25:50.290Z,100974.16
2023-02-02T12:28:29.369Z,100993.59
2023-02-02T12:31:06.032Z,101009.31
2023-02-02T12:33:47.435Z,101018.84
2023-02-02T12:36:38.972Z,101028.13
2023-02-02T12:39:23.077Z,101026.25
2023-02-02T12:42:14.263Z,101014.66
2023-02-02T12:44:57.128Z,101014.06
2023-02-02T12:47:35.025Z,101014.63
2023-02-02T12:50:25.478Z,101008.44
2023-02-02T12:53:17.004Z,101010.91
2023-02-02T12:55:53.970Z,101012.59
2023-02-02T12:58:33.683Z,101019.47
2023-02-02T13:01:48.153Z,101019.16
2023-02-02T13:04:45.571Z,101017.47
2023-02-02T13:07:38.900Z,101029.22
2023-02-02T13:10:19.933Z,101025.84
2023-02-02T13:12:56.647Z,101036.97
2023-02-02T13:15:34.522Z,101029.69
2023-02-02T13:18:10.625Z,101043.91
2023-02-02T13:20:46.499Z,101044.22
2023-02-02T13:23:25.466Z,101052.06
2023-02-02T13:26:01.104Z,101060.91
2023-02-02T13:28:38.858Z,101068.19
2023-02-02T13:31:19.536Z,101070.69
2023-02-02T13:33:55.958Z,101079.25
2023-02-02T13:36:30.753Z,101081.97
2023-02-02T13:39:06.424Z,101090.56
2023-02-02T13:41:37.046Z,101098.75
2023-02-02T13:44:12.251Z,101098.47
2023-02-02T13:46:51.763Z,101100.75
2023-02-02T13:49:26.363Z,101103.19
2023-02-02T13:52:08.333Z,101103.78
2023-02-02T13:55:08.300Z,101107.56
2023-02-02T13:58:20.296Z,101112.63
2023-02-02T14:00:53.005Z,101115.41
2023-02-02T14:03:38.372Z,101132.09
2023-02-02T14:06:12.510Z,101134.50
2023-02-02T14:08:50.829Z,101132.31
2023-02-02T14:11:30.431Z,101152.06
2023-02-02T14:14:21.520Z,101153.97
2023-02-02T14:16:56.124Z,101144.84
2023-02-02T14:19:54.958Z,101158.97
2023-02-02T14:22:47.940Z,101164.75
2023-02-02T14:25:48.619Z,101164.53
2023-02-02T14:28:45.418Z,101170.66
2023-02-02T14:31:54.076Z,101183.69
2023-02-02T14:34:36.743Z,101188.13
2023-02-02T14:37:31.030Z,101191.03
2023-02-02T14:40:06.678Z,101196.84
2023-02-02T14:43:02.607Z,101203.94
2023-02-02T14:45:36.762Z,101214.88
2023-02-02T14:48:13.005Z,101222.28
2023-02-02T14:50:53.341Z,101233.28
2023-02-02T14:53:28.541Z,101234.59
2023-02-02T14:56:08.962Z,101239.84
2023-02-02T14:58:43.904Z,101253.69
2023-02-02T15:01:27.757Z,101260.88
2023-02-02T15:03:59.156Z,101265.19
2023-02-02T15:06:35.753Z,101263.78
2023-02-02T15:09:41.407Z,101273.31
2023-02-02T15:12:25.510Z,101275.69
2023-02-02T15:15:05.027Z,101283.72
2023-02-02T15:17:53.443Z,101277.50
2023-02-02T15:20:31.993Z,101291.59
2023-02-02T15:23:07.363Z,101297.88
2023-02-02T15:25:47.127Z,101302.84
2023-02-02T15:28:24.127Z,101309.59
2023-02-02T15:31:02.646Z,101319.25
2023-02-02T15:33:39.741Z,101324.38
2023-02-02T15:36:25.996Z,101333.22
2023-02-02T15:38:58.811Z,101336.56
2023-02-02T15:41:34.881Z,101331.50
2023-02-02T15:44:20.340Z,101338.22
2023-02-02T15:46:52.085Z,101346.13
2023-02-02T15:49:35.355Z,101363.28
2023-02-02T15:52:18.807Z,101381.25
2023-02-02T15:54:55.406Z,101383.09
2023-02-02T15:57:32.017Z,101387.47
2023-02-02T16:00:04.818Z,101383.00
2023-02-02T16:02:42.086Z,101396.31
2023-02-02T16:05:42.074Z,101406.38
2023-02-02T16:08:20.484Z,101403.94
2023-02-02T16:10:51.723Z,101410.16
2023-02-02T16:13:28.197Z,101417.09
2023-02-02T16:16:00.814Z,101428.53
2023-02-02T16:18:32.307Z,101435.88
2023-02-02T16:21:17.459Z,101438.72
2023-02-02T16:23:49.280Z,101454.75
2023-02-02T16:26:22.278Z,101445.94
2023-02-02T16:28:53.089Z,101454.97
2023-02-02T16:31:23.434Z,101456.94
2023-02-02T16:33:54.103Z,101471.72
2023-02-02T16:36:29.645Z,101470.91
2023-02-02T16:39:01.496Z,101473.09
2023-02-02T16:41:35.198Z,101477.63
2023-02-02T16:44:45.692Z,101490.56
2023-02-02T16:47:38.705Z,101499.78
2023-02-02T16:50:32.702Z,101494.78
2023-02-02T16:53:08.240Z,101500.88
2023-02-02T16:55:50.581Z,101506.31
2023-02-02T16:58:24.469Z,101504.00
2023-02-02T17:01:14.811Z,101514.22
2023-02-02T17:03:53.703Z,101525.81
2023-02-02T17:06:50.085Z,101519.72
2023-02-02T17:09:37.339Z,101526.22
2023-02-02T17:12:33.806Z,101530.28
2023-02-02T17:15:25.797Z,101532.91
2023-02-02T17:17:56.934Z,101545.34
2023-02-02T17:20:27.350Z,101547.22
2023-02-02T17:23:01.159Z,101549.00
2023-02-02T17:25:38.574Z,101552.25
2023-02-02T17:28:13.588Z,101551.31
2023-02-02T17:31:06.021Z,101549.69
2023-02-02T17:33:38.301Z,101555.69
2023-02-02T17:36:09.963Z,101553.59
2023-02-02T17:38:40.380Z,101554.97
2023-02-02T17:41:15.092Z,101566.28
2023-02-02T17:43:59.458Z,101575.69
2023-02-02T17:46:32.244Z,101576.13
2023-02-02T17:49:02.694Z,101585.09
2023-02-02T17:51:41.143Z,101589.13
2023-02-02T17:54:15.487Z,101583.47
2023-02-02T17:56:51.050Z,101597.63
2023-02-02T17:59:23.551Z,101600.13
2023-02-02T18:01:55.129Z,101597.09
2023-02-02T18:04:26.935Z,101600.72
2023-02-02T18:06:56.841Z,101596.22
2023-02-02T18:09:27.451Z,101597.91
2023-02-02T18:11:59.989Z,101598.00
2023-02-02T18:14:30.312Z,101598.00
2023-02-02T18:17:00.239Z,101597.97
2023-02-02T18:19:30.677Z,101592.56
2023-02-02T18:22:00.844Z,101594.34
2023-02-02T18:24:31.239Z,101591.81
2023-02-02T18:27:03.838Z,101597.03
2023-02-02T18:29:34.628Z,101601.88
2023-02-02T18:32:05.456Z,101602.41
2023-02-02T18:34:36.747Z,101608.84
2023-02-02T18:37:06.755Z,101602.94
2023-02-02T18:39:37.460Z,101604.50
2023-02-02T18:42:10.073Z,101607.94
2023-02-02T18:44:40.314Z,101609.81
2023-02-02T18:47:10.804Z,101606.88
2023-02-02T18:49:41.172Z,101609.06
2023-02-02T18:52:11.134Z,101603.75
2023-02-02T18:54:41.503Z,101601.41
2023-02-02T18:57:14.928Z,101599.22
2023-02-02T18:59:46.380Z,101600.03
2023-02-02T19:02:17.835Z,101591.03
2023-02-02T19:05:00.509Z,101600.03
2023-02-02T19:07:42.957Z,101598.34
2023-02-02T19:10:14.155Z,101597.00
2023-02-02T19:12:54.595Z,101592.97
2023-02-02T19:15:28.807Z,101604.28
2023-02-02T19:17:59.023Z,101602.59
2023-02-02T19:20:30.953Z,101606.66
2023-02-02T19:23:12.729Z,101602.38
2023-02-02T19:25:46.386Z,101602.69
2023-02-02T19:28:25.350Z,101608.84
2023-02-02T19:30:58.027Z,101608.09
2023-02-02T19:33:37.575Z,101610.88
2023-02-02T19:36:10.337Z,101618.31
2023-02-02T19:38:40.891Z,101617.06
2023-02-02T19:41:19.997Z,101623.03
2023-02-02T19:43:58.680Z,101624.59
2023-02-02T19:46:32.414Z,101627.13
2023-02-02T19:49:10.208Z,101623.19
2023-02-02T19:51:45.416Z,101625.59
2023-02-02T19:54:31.400Z,101624.38
2023-02-02T19:57:03.821Z,101638.63
2023-02-02T19:59:38.272Z,101638.16
2023-02-02T20:02:44.074Z,101627.34
2023-02-02T20:05:21.758Z,101634.00
2023-02-02T20:07:58.829Z,101638.81
2023-02-02T20:10:30.930Z,101634.53
2023-02-02T20:13:01.583Z,101628.34
2023-02-02T20:15:36.713Z,101628.66
2023-02-02T20:18:13.876Z,101634.28
2023-02-02T20:20:47.397Z,101635.53
2023-02-02T20:23:42.015Z,101636.56
2023-02-02T20:26:25.989Z,101638.31
2023-02-02T20:28:59.080Z,101635.56
2023-02-02T20:31:39.426Z,101641.88
2023-02-02T20:34:25.449Z,101635.25
2023-02-02T20:36:56.951Z,101638.59
2023-02-02T20:39:32.065Z,101632.47
2023-02-02T20:42:02.233Z,101626.41
2023-02-02T20:44:35.020Z,101624.56
2023-02-02T20:47:08.675Z,101626.41
2023-02-02T20:49:40.244Z,101628.41
2023-02-02T20:52:12.991Z,101618.09
2023-02-02T20:54:43.427Z,101619.28
2023-02-02T20:57:13.425Z,101620.13
2023-02-02T20:59:43.719Z,101618.81
2023-02-02T21:02:19.374Z,101614.31
2023-02-02T21:04:50.866Z,101613.16
2023-02-02T21:07:23.464Z,101608.84
2023-02-02T21:09:54.112Z,101609.63
2023-02-02T21:12:25.710Z,101604.72
2023-02-02T21:14:56.639Z,101607.41
2023-02-02T21:17:29.940Z,101607.25
2023-02-02T21:20:00.339Z,101609.78
2023-02-02T21:22:30.356Z,101597.81
2023-02-02T21:25:26.003Z,101607.31
2023-02-02T21:28:17.413Z,101592.94
2023-02-02T21:30:47.755Z,101584.25
2023-02-02T21:33:20.477Z,101584.19
2023-02-02T21:35:50.711Z,101579.28
2023-02-02T21:38:20.700Z,101576.13
2023-02-02T21:40:51.611Z,101580.50
2023-02-02T21:43:21.701Z,101586.69
2023-02-02T21:45:53.433Z,101582.56
2023-02-02T21:48:38.664Z,101576.66
2023-02-02T21:51:42.867Z,101582.47
2023-02-02T21:54:22.338Z,101584.41
2023-02-02T21:56:53.844Z,101584.31
2023-02-02T21:59:25.839Z,101584.75
2023-02-02T22:01:56.162Z,101590.09
2023-02-02T22:04:30.758Z,101586.38
2023-02-02T22:07:03.486Z,101576.78
2023-02-02T22:09:41.769Z,101568.84
2023-02-02T22:12:20.481Z,101571.44
2023-02-02T22:14:52.290Z,101567.44
2023-02-02T22:17:25.953Z,101558.78
2023-02-02T22:20:02.997Z,101569.19
2023-02-02T22:22:38.024Z,101562.81
2023-02-02T22:25:30.335Z,101567.97
2023-02-02T22:28:04.159Z,101565.50
2023-02-02T22:30:39.021Z,101564.59
2023-02-02T22:33:13.117Z,101559.75
2023-02-02T22:35:46.809Z,101558.63
2023-02-02T22:38:20.035Z,101564.97
2023-02-02T22:40:51.333Z,101569.09
2023-02-02T22:43:24.156Z,101567.22
2023-02-02T22:45:54.521Z,101565.38
2023-02-02T22:48:25.125Z,101568.75
2023-02-02T22:50:58.224Z,101569.09
2023-02-02T22:53:28.500Z,101571.66
2023-02-02T22:55:59.040Z,101572.13
2023-02-02T22:58:29.396Z,101572.13
2023-02-02T23:00:59.515Z,101573.88
2023-02-02T23:03:30.007Z,101574.09
2023-02-02T23:06:06.223Z,101566.97
2023-02-02T23:08:38.943Z,101564.31
2023-02-02T23:11:09.026Z,101557.63
2023-02-02T23:13:41.653Z,101558.63
2023-02-02T23:16:12.571Z,101558.50
2023-02-02T23:18:43.005Z,101559.69
2023-02-02T23:21:16.147Z,101550.97
2023-02-02T23:23:47.338Z,101545.00
2023-02-02T23:26:20.547Z,101544.91
2023-02-02T23:29:08.246Z,101544.22
2023-02-02T23:31:38.312Z,101544.88
2023-02-02T23:34:08.606Z,101546.28
2023-02-02T23:36:41.110Z,101550.19
2023-02-02T23:39:11.351Z,101541.41
2023-02-02T23:41:41.294Z,101539.66
2023-02-02T23:44:11.655Z,101529.69
2023-02-02T23:46:42.562Z,101529.47
2023-02-02T23:49:13.247Z,101517.25
2023-02-02T23:51:45.994Z,101516.53
2023-02-02T23:54:17.224Z,101507.97
2023-02-02T23:56:47.378Z,101506.63
2023-02-02T23:59:17.802Z,101500.59
